sensor_id;sensor_type;location;lat;lon;timestamp;P1;durP1;ratioP1;P2;durP2;ratioP2
30327;SDS011;17133;52.418;13.398;2022-09-27T00:02:02;4.57;;;2.47;;
30327;SDS011;17133;52.418;13.398;2022-09-27T00:04:28;4.15;;;2.35;;
30327;SDS011;17133;52.418;13.398;2022-09-27T00:06:54;4.35;;;2.58;;
30327;SDS011;17133;52.418;13.398;2022-09-27T00:09:20;5.68;;;2.42;;
30327;SDS011;17133;52.418;13.398;2022-09-27T00:11:46;5.60;;;2.30;;
30327;SDS011;17133;52.418;13.398;2022-09-27T00:14:12;3.63;;;2.35;;
30327;SDS011;17133;52.418;13.398;2022-09-27T00:16:39;4.03;;;2.13;;
30327;SDS011;17133;52.418;13.398;2022-09-27T00:19:06;3.50;;;2.42;;
30327;SDS011;17133;52.418;13.398;2022-09-27T00:21:33;4.53;;;2.55;;
30327;SDS011;17133;52.418;13.398;2022-09-27T00:23:59;4.40;;;2.70;;
30327;SDS011;17133;52.418;13.398;2022-09-27T00:26:25;3.53;;;2.35;;
30327;SDS011;17133;52.418;13.398;2022-09-27T00:28:51;4.20;;;2.20;;
30327;SDS011;17133;52.418;13.398;2022-09-27T00:31:27;3.90;;;2.00;;
30327;SDS011;17133;52.418;13.398;2022-09-27T00:33:54;5.47;;;2.58;;
30327;SDS011;17133;52.418;13.398;2022-09-27T00:36:22;4.75;;;2.42;;
30327;SDS011;17133;52.418;13.398;2022-09-27T00:38:48;2.65;;;1.90;;
30327;SDS011;17133;52.418;13.398;2022-09-27T00:43:53;3.92;;;2.78;;
30327;SDS011;17133;52.418;13.398;2022-09-27T00:49:19;2.30;;;2.10;;
30327;SDS011;17133;52.418;13.398;2022-09-27T00:51:44;2.45;;;2.00;;
30327;SDS011;17133;52.418;13.398;2022-09-27T00:54:13;3.53;;;2.08;;
30327;SDS011;17133;52.418;13.398;2022-09-27T00:56:39;4.88;;;2.20;;
30327;SDS011;17133;52.418;13.398;2022-09-27T01:01:33;4.72;;;2.15;;
30327;SDS011;17133;52.418;13.398;2022-09-27T01:06:31;2.70;;;2.10;;
30327;SDS011;17133;52.418;13.398;2022-09-27T01:08:57;2.33;;;1.75;;
30327;SDS011;17133;52.418;13.398;2022-09-27T01:16:47;2.58;;;1.85;;
30327;SDS011;17133;52.418;13.398;2022-09-27T01:19:32;2.55;;;1.90;;
30327;SDS011;17133;52.418;13.398;2022-09-27T01:22:04;4.28;;;2.10;;
30327;SDS011;17133;52.418;13.398;2022-09-27T01:24:38;3.75;;;1.73;;
30327;SDS011;17133;52.418;13.398;2022-09-27T01:34:47;3.72;;;1.95;;
30327;SDS011;17133;52.418;13.398;2022-09-27T01:37:29;3.65;;;1.95;;
30327;SDS011;17133;52.418;13.398;2022-09-27T01:40:03;7.05;;;2.20;;
30327;SDS011;17133;52.418;13.398;2022-09-27T01:42:42;3.38;;;1.95;;
30327;SDS011;17133;52.418;13.398;2022-09-27T01:47:48;3.63;;;2.17;;
30327;SDS011;17133;52.418;13.398;2022-09-27T01:50:21;2.90;;;1.88;;
30327;SDS011;17133;52.418;13.398;2022-09-27T01:52:51;3.17;;;2.13;;
30327;SDS011;17133;52.418;13.398;2022-09-27T01:55:19;3.35;;;1.70;;
30327;SDS011;17133;52.418;13.398;2022-09-27T01:57:48;3.72;;;2.00;;
30327;SDS011;17133;52.418;13.398;2022-09-27T02:00:15;3.38;;;1.95;;
30327;SDS011;17133;52.418;13.398;2022-09-27T02:02:48;3.72;;;2.03;;
30327;SDS011;17133;52.418;13.398;2022-09-27T02:05:15;4.13;;;2.13;;
30327;SDS011;17133;52.418;13.398;2022-09-27T02:10:18;3.08;;;1.70;;
30327;SDS011;17133;52.418;13.398;2022-09-27T02:12:55;3.10;;;1.65;;
30327;SDS011;17133;52.418;13.398;2022-09-27T02:15:22;2.95;;;1.83;;
30327;SDS011;17133;52.418;13.398;2022-09-27T02:17:54;2.60;;;1.60;;
30327;SDS011;17133;52.418;13.398;2022-09-27T02:20:32;3.22;;;1.42;;
30327;SDS011;17133;52.418;13.398;2022-09-27T02:25:41;1.90;;;1.35;;
30327;SDS011;17133;52.418;13.398;2022-09-27T02:30:35;2.72;;;1.60;;
30327;SDS011;17133;52.418;13.398;2022-09-27T02:33:01;2.22;;;1.70;;
30327;SDS011;17133;52.418;13.398;2022-09-27T02:35:28;2.40;;;1.55;;
30327;SDS011;17133;52.418;13.398;2022-09-27T02:37:56;3.40;;;2.00;;
30327;SDS011;17133;52.418;13.398;2022-09-27T02:40:22;2.45;;;1.90;;
30327;SDS011;17133;52.418;13.398;2022-09-27T02:42:49;4.43;;;1.90;;
30327;SDS011;17133;52.418;13.398;2022-09-27T02:45:15;2.60;;;1.45;;
30327;SDS011;17133;52.418;13.398;2022-09-27T02:48:04;2.10;;;1.52;;
30327;SDS011;17133;52.418;13.398;2022-09-27T02:53:22;2.85;;;1.80;;
30327;SDS011;17133;52.418;13.398;2022-09-27T03:01:01;2.72;;;1.70;;
30327;SDS011;17133;52.418;13.398;2022-09-27T03:03:36;4.53;;;2.17;;
30327;SDS011;17133;52.418;13.398;2022-09-27T03:06:04;2.80;;;1.90;;
30327;SDS011;17133;52.418;13.398;2022-09-27T03:08:31;3.47;;;1.88;;
30327;SDS011;17133;52.418;13.398;2022-09-27T03:10:57;3.63;;;2.00;;
30327;SDS011;17133;52.418;13.398;2022-09-27T03:13:23;5.20;;;1.88;;
30327;SDS011;17133;52.418;13.398;2022-09-27T03:15:49;3.33;;;2.03;;
30327;SDS011;17133;52.418;13.398;2022-09-27T03:18:15;2.42;;;2.10;;
30327;SDS011;17133;52.418;13.398;2022-09-27T03:20:41;4.13;;;2.10;;
30327;SDS011;17133;52.418;13.398;2022-09-27T03:23:07;3.65;;;2.35;;
30327;SDS011;17133;52.418;13.398;2022-09-27T03:25:33;2.60;;;1.92;;
30327;SDS011;17133;52.418;13.398;2022-09-27T03:27:59;3.10;;;2.42;;
30327;SDS011;17133;52.418;13.398;2022-09-27T03:30:25;3.95;;;2.58;;
30327;SDS011;17133;52.418;13.398;2022-09-27T03:32:51;2.92;;;2.40;;
30327;SDS011;17133;52.418;13.398;2022-09-27T03:35:17;4.32;;;2.53;;
30327;SDS011;17133;52.418;13.398;2022-09-27T03:37:43;5.82;;;2.83;;
30327;SDS011;17133;52.418;13.398;2022-09-27T03:40:11;5.03;;;2.50;;
30327;SDS011;17133;52.418;13.398;2022-09-27T03:42:37;4.05;;;2.30;;
30327;SDS011;17133;52.418;13.398;2022-09-27T03:45:03;3.40;;;2.40;;
30327;SDS011;17133;52.418;13.398;2022-09-27T03:47:29;3.97;;;2.70;;
30327;SDS011;17133;52.418;13.398;2022-09-27T03:49:55;4.28;;;2.28;;
30327;SDS011;17133;52.418;13.398;2022-09-27T03:52:21;3.42;;;2.60;;
30327;SDS011;17133;52.418;13.398;2022-09-27T03:54:47;4.10;;;2.72;;
30327;SDS011;17133;52.418;13.398;2022-09-27T03:57:13;3.53;;;2.60;;
30327;SDS011;17133;52.418;13.398;2022-09-27T03:59:39;6.38;;;2.60;;
30327;SDS011;17133;52.418;13.398;2022-09-27T04:02:05;2.80;;;2.30;;
30327;SDS011;17133;52.418;13.398;2022-09-27T04:04:31;4.25;;;2.50;;
30327;SDS011;17133;52.418;13.398;2022-09-27T04:06:57;3.60;;;2.55;;
30327;SDS011;17133;52.418;13.398;2022-09-27T04:09:23;2.55;;;2.20;;
30327;SDS011;17133;52.418;13.398;2022-09-27T04:11:49;4.03;;;2.25;;
30327;SDS011;17133;52.418;13.398;2022-09-27T04:14:15;4.78;;;2.50;;
30327;SDS011;17133;52.418;13.398;2022-09-27T04:16:41;3.08;;;2.28;;
30327;SDS011;17133;52.418;13.398;2022-09-27T04:19:07;2.92;;;2.13;;
30327;SDS011;17133;52.418;13.398;2022-09-27T04:21:34;4.32;;;2.15;;
30327;SDS011;17133;52.418;13.398;2022-09-27T04:24:00;2.97;;;2.30;;
30327;SDS011;17133;52.418;13.398;2022-09-27T04:26:26;3.42;;;2.22;;
30327;SDS011;17133;52.418;13.398;2022-09-27T04:28:52;3.45;;;2.63;;
30327;SDS011;17133;52.418;13.398;2022-09-27T04:31:18;2.85;;;2.17;;
30327;SDS011;17133;52.418;13.398;2022-09-27T04:33:44;4.68;;;2.25;;
30327;SDS011;17133;52.418;13.398;2022-09-27T04:36:17;3.22;;;2.15;;
30327;SDS011;17133;52.418;13.398;2022-09-27T04:38:50;3.35;;;2.15;;
30327;SDS011;17133;52.418;13.398;2022-09-27T04:41:16;7.82;;;2.55;;
30327;SDS011;17133;52.418;13.398;2022-09-27T04:43:42;6.88;;;2.30;;
30327;SDS011;17133;52.418;13.398;2022-09-27T04:46:08;3.10;;;2.55;;
30327;SDS011;17133;52.418;13.398;2022-09-27T04:48:34;4.05;;;2.30;;
30327;SDS011;17133;52.418;13.398;2022-09-27T04:51:01;6.30;;;2.78;;
30327;SDS011;17133;52.418;13.398;2022-09-27T04:53:28;3.47;;;2.20;;
30327;SDS011;17133;52.418;13.398;2022-09-27T04:55:54;3.60;;;2.80;;
30327;SDS011;17133;52.418;13.398;2022-09-27T04:58:21;5.15;;;2.70;;
30327;SDS011;17133;52.418;13.398;2022-09-27T05:00:47;5.60;;;2.47;;
30327;SDS011;17133;52.418;13.398;2022-09-27T05:03:16;3.53;;;2.38;;
30327;SDS011;17133;52.418;13.398;2022-09-27T05:05:43;3.85;;;2.75;;
30327;SDS011;17133;52.418;13.398;2022-09-27T05:08:09;3.85;;;2.90;;
30327;SDS011;17133;52.418;13.398;2022-09-27T05:10:35;4.90;;;2.88;;
30327;SDS011;17133;52.418;13.398;2022-09-27T05:13:01;3.75;;;2.92;;
30327;SDS011;17133;52.418;13.398;2022-09-27T05:15:27;4.25;;;2.75;;
30327;SDS011;17133;52.418;13.398;2022-09-27T05:17:54;3.67;;;2.65;;
30327;SDS011;17133;52.418;13.398;2022-09-27T05:20:21;5.05;;;3.25;;
30327;SDS011;17133;52.418;13.398;2022-09-27T05:22:49;5.45;;;2.85;;
30327;SDS011;17133;52.418;13.398;2022-09-27T05:25:15;3.85;;;2.67;;
30327;SDS011;17133;52.418;13.398;2022-09-27T05:27:41;3.92;;;2.92;;
30327;SDS011;17133;52.418;13.398;2022-09-27T05:30:07;4.55;;;2.90;;
30327;SDS011;17133;52.418;13.398;2022-09-27T05:32:33;8.05;;;3.45;;
30327;SDS011;17133;52.418;13.398;2022-09-27T05:35:00;5.53;;;2.90;;
30327;SDS011;17133;52.418;13.398;2022-09-27T05:37:26;3.45;;;2.90;;
30327;SDS011;17133;52.418;13.398;2022-09-27T05:39:53;3.80;;;2.75;;
30327;SDS011;17133;52.418;13.398;2022-09-27T05:42:19;3.92;;;2.90;;
30327;SDS011;17133;52.418;13.398;2022-09-27T05:44:46;5.28;;;2.85;;
30327;SDS011;17133;52.418;13.398;2022-09-27T05:47:13;2.67;;;2.40;;
30327;SDS011;17133;52.418;13.398;2022-09-27T05:49:39;4.10;;;2.65;;
30327;SDS011;17133;52.418;13.398;2022-09-27T05:52:06;4.18;;;2.92;;
30327;SDS011;17133;52.418;13.398;2022-09-27T05:54:32;3.00;;;2.35;;
30327;SDS011;17133;52.418;13.398;2022-09-27T05:56:58;3.15;;;2.50;;
30327;SDS011;17133;52.418;13.398;2022-09-27T05:59:27;4.20;;;2.83;;
30327;SDS011;17133;52.418;13.398;2022-09-27T06:01:53;3.45;;;2.70;;
30327;SDS011;17133;52.418;13.398;2022-09-27T06:04:20;3.78;;;3.08;;
30327;SDS011;17133;52.418;13.398;2022-09-27T06:06:46;5.15;;;2.95;;
30327;SDS011;17133;52.418;13.398;2022-09-27T06:09:13;4.20;;;2.70;;
30327;SDS011;17133;52.418;13.398;2022-09-27T06:11:40;4.72;;;3.15;;
30327;SDS011;17133;52.418;13.398;2022-09-27T06:14:06;5.35;;;3.03;;
30327;SDS011;17133;52.418;13.398;2022-09-27T06:16:32;3.45;;;2.78;;
30327;SDS011;17133;52.418;13.398;2022-09-27T06:18:58;7.22;;;3.30;;
30327;SDS011;17133;52.418;13.398;2022-09-27T06:21:24;3.80;;;2.97;;
30327;SDS011;17133;52.418;13.398;2022-09-27T06:23:52;5.60;;;3.70;;
30327;SDS011;17133;52.418;13.398;2022-09-27T06:26:19;5.22;;;3.58;;
30327;SDS011;17133;52.418;13.398;2022-09-27T06:28:46;4.32;;;3.20;;
30327;SDS011;17133;52.418;13.398;2022-09-27T06:31:12;4.47;;;3.33;;
30327;SDS011;17133;52.418;13.398;2022-09-27T06:33:39;5.75;;;3.17;;
30327;SDS011;17133;52.418;13.398;2022-09-27T06:36:05;4.85;;;3.80;;
30327;SDS011;17133;52.418;13.398;2022-09-27T06:38:32;4.63;;;3.00;;
30327;SDS011;17133;52.418;13.398;2022-09-27T06:41:02;4.72;;;2.92;;
30327;SDS011;17133;52.418;13.398;2022-09-27T06:43:28;5.15;;;3.58;;
30327;SDS011;17133;52.418;13.398;2022-09-27T06:45:57;4.07;;;2.90;;
30327;SDS011;17133;52.418;13.398;2022-09-27T06:48:28;4.57;;;3.33;;
30327;SDS011;17133;52.418;13.398;2022-09-27T06:50:55;5.03;;;3.53;;
30327;SDS011;17133;52.418;13.398;2022-09-27T06:53:22;6.32;;;3.60;;
30327;SDS011;17133;52.418;13.398;2022-09-27T06:55:48;6.68;;;4.10;;
30327;SDS011;17133;52.418;13.398;2022-09-27T06:58:15;5.45;;;3.03;;
30327;SDS011;17133;52.418;13.398;2022-09-27T07:01:00;3.67;;;3.22;;
30327;SDS011;17133;52.418;13.398;2022-09-27T07:03:26;6.28;;;4.13;;
30327;SDS011;17133;52.418;13.398;2022-09-27T07:06:00;5.18;;;3.25;;
30327;SDS011;17133;52.418;13.398;2022-09-27T07:08:27;4.35;;;3.60;;
30327;SDS011;17133;52.418;13.398;2022-09-27T07:11:03;4.30;;;3.13;;
30327;SDS011;17133;52.418;13.398;2022-09-27T07:13:29;6.40;;;3.60;;
30327;SDS011;17133;52.418;13.398;2022-09-27T07:15:56;5.20;;;3.63;;
30327;SDS011;17133;52.418;13.398;2022-09-27T07:18:23;4.95;;;3.88;;
30327;SDS011;17133;52.418;13.398;2022-09-27T07:20:49;5.07;;;3.40;;
30327;SDS011;17133;52.418;13.398;2022-09-27T07:23:15;7.15;;;4.10;;
30327;SDS011;17133;52.418;13.398;2022-09-27T07:25:41;5.25;;;3.83;;
30327;SDS011;17133;52.418;13.398;2022-09-27T07:28:09;5.65;;;3.72;;
30327;SDS011;17133;52.418;13.398;2022-09-27T07:30:36;4.88;;;3.50;;
30327;SDS011;17133;52.418;13.398;2022-09-27T07:33:03;6.20;;;3.70;;
30327;SDS011;17133;52.418;13.398;2022-09-27T07:35:30;5.35;;;3.40;;
30327;SDS011;17133;52.418;13.398;2022-09-27T07:37:56;5.65;;;3.65;;
30327;SDS011;17133;52.418;13.398;2022-09-27T07:40:23;3.92;;;3.22;;
30327;SDS011;17133;52.418;13.398;2022-09-27T07:42:56;4.85;;;3.47;;
30327;SDS011;17133;52.418;13.398;2022-09-27T07:45:22;5.25;;;3.78;;
30327;SDS011;17133;52.418;13.398;2022-09-27T07:47:48;6.50;;;3.28;;
30327;SDS011;17133;52.418;13.398;2022-09-27T07:50:14;5.60;;;3.00;;
30327;SDS011;17133;52.418;13.398;2022-09-27T07:52:41;4.65;;;3.28;;
30327;SDS011;17133;52.418;13.398;2022-09-27T07:55:08;4.13;;;3.22;;
30327;SDS011;17133;52.418;13.398;2022-09-27T07:57:35;6.65;;;2.88;;
30327;SDS011;17133;52.418;13.398;2022-09-27T08:00:02;4.75;;;3.15;;
30327;SDS011;17133;52.418;13.398;2022-09-27T08:02:29;4.43;;;3.20;;
30327;SDS011;17133;52.418;13.398;2022-09-27T08:04:56;4.57;;;3.05;;
30327;SDS011;17133;52.418;13.398;2022-09-27T08:07:23;4.88;;;3.28;;
30327;SDS011;17133;52.418;13.398;2022-09-27T08:09:49;3.60;;;2.50;;
30327;SDS011;17133;52.418;13.398;2022-09-27T08:12:15;4.57;;;3.05;;
30327;SDS011;17133;52.418;13.398;2022-09-27T08:14:41;4.85;;;3.25;;
30327;SDS011;17133;52.418;13.398;2022-09-27T08:17:10;3.83;;;2.83;;
30327;SDS011;17133;52.418;13.398;2022-09-27T08:19:36;5.80;;;3.00;;
30327;SDS011;17133;52.418;13.398;2022-09-27T08:22:03;5.95;;;3.40;;
30327;SDS011;17133;52.418;13.398;2022-09-27T08:24:29;3.85;;;3.10;;
30327;SDS011;17133;52.418;13.398;2022-09-27T08:26:54;4.20;;;2.63;;
30327;SDS011;17133;52.418;13.398;2022-09-27T08:29:20;4.68;;;2.97;;
30327;SDS011;17133;52.418;13.398;2022-09-27T08:31:49;4.82;;;3.22;;
30327;SDS011;17133;52.418;13.398;2022-09-27T08:34:15;3.30;;;2.70;;
30327;SDS011;17133;52.418;13.398;2022-09-27T08:36:41;5.53;;;2.90;;
30327;SDS011;17133;52.418;13.398;2022-09-27T08:39:07;3.97;;;3.20;;
30327;SDS011;17133;52.418;13.398;2022-09-27T08:41:44;4.18;;;2.75;;
30327;SDS011;17133;52.418;13.398;2022-09-27T08:49:39;4.70;;;3.47;;
30327;SDS011;17133;52.418;13.398;2022-09-27T08:52:07;5.38;;;2.90;;
30327;SDS011;17133;52.418;13.398;2022-09-27T08:54:36;4.47;;;3.55;;
30327;SDS011;17133;52.418;13.398;2022-09-27T08:57:04;4.25;;;3.00;;
30327;SDS011;17133;52.418;13.398;2022-09-27T08:59:40;3.63;;;2.95;;
30327;SDS011;17133;52.418;13.398;2022-09-27T09:02:12;3.80;;;2.60;;
30327;SDS011;17133;52.418;13.398;2022-09-27T09:04:39;5.07;;;3.63;;
30327;SDS011;17133;52.418;13.398;2022-09-27T09:07:08;6.97;;;3.30;;
30327;SDS011;17133;52.418;13.398;2022-09-27T09:17:39;3.53;;;2.90;;
30327;SDS011;17133;52.418;13.398;2022-09-27T09:25:22;3.55;;;3.25;;
30327;SDS011;17133;52.418;13.398;2022-09-27T09:27:56;5.57;;;3.45;;
30327;SDS011;17133;52.418;13.398;2022-09-27T09:30:31;4.93;;;3.70;;
30327;SDS011;17133;52.418;13.398;2022-09-27T09:35:58;3.42;;;3.13;;
30327;SDS011;17133;52.418;13.398;2022-09-27T09:38:40;3.60;;;3.15;;
30327;SDS011;17133;52.418;13.398;2022-09-27T09:41:16;5.78;;;3.20;;
30327;SDS011;17133;52.418;13.398;2022-09-27T09:43:50;3.33;;;3.03;;
30327;SDS011;17133;52.418;13.398;2022-09-27T09:46:19;4.15;;;3.20;;
30327;SDS011;17133;52.418;13.398;2022-09-27T09:48:56;3.97;;;3.30;;
30327;SDS011;17133;52.418;13.398;2022-09-27T09:51:28;3.97;;;3.58;;
30327;SDS011;17133;52.418;13.398;2022-09-27T09:54:18;4.13;;;3.65;;
30327;SDS011;17133;52.418;13.398;2022-09-27T09:56:43;4.72;;;3.58;;
30327;SDS011;17133;52.418;13.398;2022-09-27T09:59:17;3.55;;;3.25;;
30327;SDS011;17133;52.418;13.398;2022-09-27T10:01:44;3.90;;;3.50;;
30327;SDS011;17133;52.418;13.398;2022-09-27T10:04:25;5.38;;;3.80;;
30327;SDS011;17133;52.418;13.398;2022-09-27T10:06:56;5.38;;;3.92;;
30327;SDS011;17133;52.418;13.398;2022-09-27T10:09:25;4.22;;;3.63;;
30327;SDS011;17133;52.418;13.398;2022-09-27T10:11:51;4.90;;;3.33;;
30327;SDS011;17133;52.418;13.398;2022-09-27T10:14:18;4.43;;;3.47;;
30327;SDS011;17133;52.418;13.398;2022-09-27T10:16:46;3.53;;;3.22;;
30327;SDS011;17133;52.418;13.398;2022-09-27T10:19:17;6.50;;;4.00;;
30327;SDS011;17133;52.418;13.398;2022-09-27T10:21:47;3.60;;;3.17;;
30327;SDS011;17133;52.418;13.398;2022-09-27T10:24:16;4.27;;;3.87;;
30327;SDS011;17133;52.418;13.398;2022-09-27T10:26:44;4.90;;;3.55;;
30327;SDS011;17133;52.418;13.398;2022-09-27T10:29:30;4.30;;;3.60;;
30327;SDS011;17133;52.418;13.398;2022-09-27T10:31:57;4.18;;;3.78;;
30327;SDS011;17133;52.418;13.398;2022-09-27T10:39:28;4.45;;;3.70;;
30327;SDS011;17133;52.418;13.398;2022-09-27T10:41:54;3.83;;;3.33;;
30327;SDS011;17133;52.418;13.398;2022-09-27T10:44:25;4.43;;;3.60;;
30327;SDS011;17133;52.418;13.398;2022-09-27T10:46:55;4.70;;;3.97;;
30327;SDS011;17133;52.418;13.398;2022-09-27T10:51:52;3.97;;;3.67;;
30327;SDS011;17133;52.418;13.398;2022-09-27T10:54:23;4.70;;;3.83;;
30327;SDS011;17133;52.418;13.398;2022-09-27T10:59:23;3.17;;;2.85;;
30327;SDS011;17133;52.418;13.398;2022-09-27T11:01:50;3.83;;;3.40;;
30327;SDS011;17133;52.418;13.398;2022-09-27T11:04:27;3.55;;;2.80;;
30327;SDS011;17133;52.418;13.398;2022-09-27T11:07:14;4.85;;;2.80;;
30327;SDS011;17133;52.418;13.398;2022-09-27T11:12:18;4.25;;;3.40;;
30327;SDS011;17133;52.418;13.398;2022-09-27T11:14:51;4.40;;;2.92;;
30327;SDS011;17133;52.418;13.398;2022-09-27T11:17:18;3.17;;;2.70;;
30327;SDS011;17133;52.418;13.398;2022-09-27T11:25:19;4.80;;;3.13;;
30327;SDS011;17133;52.418;13.398;2022-09-27T11:28:03;6.25;;;3.50;;
30327;SDS011;17133;52.418;13.398;2022-09-27T11:30:42;4.50;;;2.78;;
30327;SDS011;17133;52.418;13.398;2022-09-27T11:43:16;5.38;;;1.90;;
30327;SDS011;17133;52.418;13.398;2022-09-27T11:45:45;4.20;;;1.58;;
30327;SDS011;17133;52.418;13.398;2022-09-27T11:48:30;5.22;;;1.25;;
30327;SDS011;17133;52.418;13.398;2022-09-27T11:56:00;2.90;;;1.00;;
30327;SDS011;17133;52.418;13.398;2022-09-27T12:04:04;2.95;;;1.02;;
30327;SDS011;17133;52.418;13.398;2022-09-27T12:09:20;1.45;;;0.90;;
30327;SDS011;17133;52.418;13.398;2022-09-27T12:11:51;3.53;;;1.20;;
30327;SDS011;17133;52.418;13.398;2022-09-27T12:14:35;3.08;;;1.20;;
30327;SDS011;17133;52.418;13.398;2022-09-27T12:17:04;1.90;;;1.00;;
30327;SDS011;17133;52.418;13.398;2022-09-27T12:19:33;3.35;;;1.40;;
30327;SDS011;17133;52.418;13.398;2022-09-27T12:22:01;2.85;;;1.63;;
30327;SDS011;17133;52.418;13.398;2022-09-27T12:24:29;2.33;;;1.50;;
30327;SDS011;17133;52.418;13.398;2022-09-27T12:26:59;2.40;;;1.67;;
30327;SDS011;17133;52.418;13.398;2022-09-27T12:29:28;3.05;;;1.85;;
30327;SDS011;17133;52.418;13.398;2022-09-27T12:34:36;2.35;;;1.90;;
30327;SDS011;17133;52.418;13.398;2022-09-27T12:42:22;5.38;;;2.90;;
30327;SDS011;17133;52.418;13.398;2022-09-27T12:44:49;3.60;;;1.95;;
30327;SDS011;17133;52.418;13.398;2022-09-27T12:52:14;2.40;;;2.00;;
30327;SDS011;17133;52.418;13.398;2022-09-27T12:57:37;2.28;;;1.83;;
30327;SDS011;17133;52.418;13.398;2022-09-27T13:00:11;2.50;;;2.10;;
30327;SDS011;17133;52.418;13.398;2022-09-27T13:05:50;2.85;;;2.25;;
30327;SDS011;17133;52.418;13.398;2022-09-27T13:13:40;2.90;;;2.10;;
30327;SDS011;17133;52.418;13.398;2022-09-27T13:16:07;4.55;;;2.28;;
30327;SDS011;17133;52.418;13.398;2022-09-27T13:21:04;2.85;;;2.10;;
30327;SDS011;17133;52.418;13.398;2022-09-27T13:25:57;3.03;;;2.72;;
30327;SDS011;17133;52.418;13.398;2022-09-27T13:30:54;5.15;;;3.50;;
30327;SDS011;17133;52.418;13.398;2022-09-27T13:33:21;5.47;;;3.28;;
30327;SDS011;17133;52.418;13.398;2022-09-27T13:36:17;4.15;;;2.67;;
30327;SDS011;17133;52.418;13.398;2022-09-27T13:38:52;4.17;;;2.60;;
30327;SDS011;17133;52.418;13.398;2022-09-27T13:41:25;4.50;;;3.15;;
30327;SDS011;17133;52.418;13.398;2022-09-27T13:46:18;3.45;;;2.15;;
30327;SDS011;17133;52.418;13.398;2022-09-27T13:48:53;2.40;;;1.88;;
30327;SDS011;17133;52.418;13.398;2022-09-27T13:54:49;3.20;;;2.42;;
30327;SDS011;17133;52.418;13.398;2022-09-27T13:56:59;2.20;;;1.75;;
30327;SDS011;17133;52.418;13.398;2022-09-27T13:59:30;2.95;;;2.30;;
30327;SDS011;17133;52.418;13.398;2022-09-27T14:01:59;2.55;;;1.95;;
30327;SDS011;17133;52.418;13.398;2022-09-27T14:04:31;4.13;;;2.05;;
30327;SDS011;17133;52.418;13.398;2022-09-27T14:07:00;3.78;;;2.30;;
30327;SDS011;17133;52.418;13.398;2022-09-27T14:12:00;2.95;;;1.77;;
30327;SDS011;17133;52.418;13.398;2022-09-27T14:14:29;3.33;;;2.40;;
30327;SDS011;17133;52.418;13.398;2022-09-27T14:17:00;3.80;;;2.20;;
30327;SDS011;17133;52.418;13.398;2022-09-27T14:21:52;3.65;;;2.10;;
30327;SDS011;17133;52.418;13.398;2022-09-27T14:26:44;4.47;;;2.72;;
30327;SDS011;17133;52.418;13.398;2022-09-27T14:29:17;4.00;;;2.15;;
30327;SDS011;17133;52.418;13.398;2022-09-27T14:31:43;2.45;;;1.90;;
30327;SDS011;17133;52.418;13.398;2022-09-27T14:34:10;4.20;;;3.60;;
30327;SDS011;17133;52.418;13.398;2022-09-27T14:36:36;4.85;;;2.50;;
30327;SDS011;17133;52.418;13.398;2022-09-27T14:39:22;3.83;;;2.70;;
30327;SDS011;17133;52.418;13.398;2022-09-27T14:41:48;3.88;;;2.40;;
30327;SDS011;17133;52.418;13.398;2022-09-27T14:44:15;4.57;;;2.80;;
30327;SDS011;17133;52.418;13.398;2022-09-27T14:46:42;2.95;;;2.30;;
30327;SDS011;17133;52.418;13.398;2022-09-27T14:49:10;2.92;;;2.17;;
30327;SDS011;17133;52.418;13.398;2022-09-27T14:51:37;3.53;;;2.55;;
30327;SDS011;17133;52.418;13.398;2022-09-27T14:54:04;4.90;;;2.58;;
30327;SDS011;17133;52.418;13.398;2022-09-27T14:56:35;4.05;;;2.85;;
30327;SDS011;17133;52.418;13.398;2022-09-27T14:59:03;3.95;;;2.85;;
30327;SDS011;17133;52.418;13.398;2022-09-27T15:01:30;3.80;;;2.80;;
30327;SDS011;17133;52.418;13.398;2022-09-27T15:04:02;5.60;;;2.80;;
30327;SDS011;17133;52.418;13.398;2022-09-27T15:06:28;5.13;;;2.85;;
30327;SDS011;17133;52.418;13.398;2022-09-27T15:08:54;5.30;;;3.40;;
30327;SDS011;17133;52.418;13.398;2022-09-27T15:11:20;3.20;;;2.50;;
30327;SDS011;17133;52.418;13.398;2022-09-27T15:13:48;4.47;;;3.13;;
30327;SDS011;17133;52.418;13.398;2022-09-27T15:16:17;5.80;;;2.65;;
30327;SDS011;17133;52.418;13.398;2022-09-27T15:21:14;5.93;;;3.35;;
30327;SDS011;17133;52.418;13.398;2022-09-27T15:23:43;6.93;;;3.60;;
30327;SDS011;17133;52.418;13.398;2022-09-27T15:26:51;6.40;;;3.75;;
30327;SDS011;17133;52.418;13.398;2022-09-27T15:28:59;7.07;;;4.45;;
30327;SDS011;17133;52.418;13.398;2022-09-27T15:31:30;8.07;;;4.50;;
30327;SDS011;17133;52.418;13.398;2022-09-27T15:33:56;6.25;;;4.05;;
30327;SDS011;17133;52.418;13.398;2022-09-27T15:36:48;6.75;;;3.97;;
30327;SDS011;17133;52.418;13.398;2022-09-27T15:39:19;5.28;;;3.90;;
30327;SDS011;17133;52.418;13.398;2022-09-27T15:41:59;5.80;;;4.00;;
30327;SDS011;17133;52.418;13.398;2022-09-27T15:46:51;7.22;;;4.25;;
30327;SDS011;17133;52.418;13.398;2022-09-27T15:49:27;8.20;;;4.40;;
30327;SDS011;17133;52.418;13.398;2022-09-27T15:51:55;5.47;;;4.03;;
30327;SDS011;17133;52.418;13.398;2022-09-27T15:54:22;5.75;;;3.55;;
30327;SDS011;17133;52.418;13.398;2022-09-27T15:56:49;5.93;;;4.32;;
30327;SDS011;17133;52.418;13.398;2022-09-27T15:59:34;7.82;;;4.00;;
30327;SDS011;17133;52.418;13.398;2022-09-27T16:02:09;5.20;;;3.38;;
30327;SDS011;17133;52.418;13.398;2022-09-27T16:04:37;5.68;;;4.00;;
30327;SDS011;17133;52.418;13.398;2022-09-27T16:07:03;5.47;;;3.85;;
30327;SDS011;17133;52.418;13.398;2022-09-27T16:11:59;5.55;;;3.65;;
30327;SDS011;17133;52.418;13.398;2022-09-27T16:14:25;6.72;;;3.83;;
30327;SDS011;17133;52.418;13.398;2022-09-27T16:16:51;6.03;;;4.40;;
30327;SDS011;17133;52.418;13.398;2022-09-27T16:19:23;5.78;;;3.90;;
30327;SDS011;17133;52.418;13.398;2022-09-27T16:21:49;5.57;;;3.53;;
30327;SDS011;17133;52.418;13.398;2022-09-27T16:24:15;5.05;;;3.83;;
30327;SDS011;17133;52.418;13.398;2022-09-27T16:26:41;5.60;;;3.92;;
30327;SDS011;17133;52.418;13.398;2022-09-27T16:29:11;6.43;;;4.20;;
30327;SDS011;17133;52.418;13.398;2022-09-27T16:31:38;5.45;;;3.53;;
30327;SDS011;17133;52.418;13.398;2022-09-27T16:34:05;6.10;;;3.95;;
30327;SDS011;17133;52.418;13.398;2022-09-27T16:36:31;8.30;;;4.55;;
30327;SDS011;17133;52.418;13.398;2022-09-27T16:38:57;5.90;;;4.53;;
30327;SDS011;17133;52.418;13.398;2022-09-27T16:41:23;6.78;;;4.85;;
30327;SDS011;17133;52.418;13.398;2022-09-27T16:43:49;6.05;;;3.92;;
30327;SDS011;17133;52.418;13.398;2022-09-27T16:46:15;7.25;;;4.60;;
30327;SDS011;17133;52.418;13.398;2022-09-27T16:48:44;7.65;;;4.10;;
30327;SDS011;17133;52.418;13.398;2022-09-27T16:51:11;5.25;;;3.60;;
30327;SDS011;17133;52.418;13.398;2022-09-27T16:53:56;6.38;;;4.63;;
30327;SDS011;17133;52.418;13.398;2022-09-27T16:56:22;6.07;;;4.35;;
30327;SDS011;17133;52.418;13.398;2022-09-27T16:58:48;6.15;;;4.32;;
30327;SDS011;17133;52.418;13.398;2022-09-27T17:01:14;5.60;;;4.35;;
30327;SDS011;17133;52.418;13.398;2022-09-27T17:03:41;7.40;;;4.80;;
30327;SDS011;17133;52.418;13.398;2022-09-27T17:06:07;6.50;;;5.20;;
30327;SDS011;17133;52.418;13.398;2022-09-27T17:08:33;6.68;;;5.15;;
30327;SDS011;17133;52.418;13.398;2022-09-27T17:11:00;6.05;;;4.68;;
30327;SDS011;17133;52.418;13.398;2022-09-27T17:13:26;8.10;;;4.68;;
30327;SDS011;17133;52.418;13.398;2022-09-27T17:15:52;8.85;;;5.60;;
30327;SDS011;17133;52.418;13.398;2022-09-27T17:18:18;8.73;;;5.75;;
30327;SDS011;17133;52.418;13.398;2022-09-27T17:20:44;9.98;;;6.15;;